Airfield :
LOGIN :

Register | Disclaimer

   EN    FR    IT 

 










Legend :    VFR   Marginal VFR   IFR   Intensive IFR   Very Intensive IFR
Visi :
Ceiling :
>= 8 km
>= 3000ft
5 to 8 km
1000 to 3000 ft
1500m to 5 km
500 to 1000 ft
800 to 1500m
200 to 500 ft
< 800m
< 200 ft
Symbols :   Thunderstorms  Fog  Heavy snow  Heavy precipitations  Wind > 20 kt
SIGMETs :     Misc.  Thunderstorms  Icing  Turbulence  Mountain Waves  Volcanic Ashes






- Airport Elevation : 14 ft
- IATA code : LXS


LGLM - Ifaistos

CURRENT METAR :
  • 181320Z 17005KT 9999 FEW025 24/18 Q1011

EXPIRED METARs :
  • 181250Z 18008KT 9999 FEW025 24/18 Q1011
  • 181220Z 18007KT 9999 FEW025 25/19 Q1011
  • 181150Z 19008KT 9999 FEW025 25/19 Q1011
  • 181120Z 18006KT 9999 FEW025 25/18 Q1011
  • 181050Z 18006KT 9999 FEW025 25/18 Q1011
  • 181020Z 18006KT 9999 FEW025 24/18 Q1011

TAF TAF LGLM
Valid from the 18 at 12:00 until the 18 at 21:00 UTC


181100Z 1812/1821 04015KT 9999 SCT020
TEMPO 1812/1821 5000 RA FEW015 BKN020
PROB40 1812/1821 3000 FEW015CB BKN020
BECMG 1813/1815 04015G25KT



MET'MAP, your aeronautical weather chart ! - Copyright ORBIFLY December 2007 - Disclaimer

ORBIFLY MET'MAP TEAM :

Programming & Development : Alexandra Zaïnal
Original concept : Baudouin d'Aumeries
Technical & hardware support : Manuel Goepfert
Assistance : Marc-Olivier Méhu

Contact : metmap@orbifly.com




SOURCES & CREDITS :

   NOAA